createdAt,value
2023-04-17T00:02:43.027Z,15.60
2023-04-17T00:07:42.797Z,17.10
2023-04-17T00:12:42.733Z,16.50
2023-04-17T00:17:42.720Z,18.20
2023-04-17T00:22:42.615Z,16.00
2023-04-17T00:27:42.533Z,15.90
2023-04-17T00:32:42.471Z,16.40
2023-04-17T00:37:42.402Z,17.00
2023-04-17T00:42:42.318Z,16.80
2023-04-17T00:47:42.296Z,19.80
2023-04-17T00:52:42.198Z,18.20
2023-04-17T00:57:42.134Z,15.70
2023-04-17T01:02:42.237Z,15.90
2023-04-17T01:07:42.013Z,17.10
2023-04-17T01:12:41.942Z,17.80
2023-04-17T01:17:41.871Z,16.90
2023-04-17T01:22:41.797Z,15.00
2023-04-17T01:27:41.728Z,13.00
2023-04-17T01:32:41.696Z,12.60
2023-04-17T01:37:41.596Z,11.90
2023-04-17T01:42:41.515Z,12.10
2023-04-17T01:47:41.474Z,11.10
2023-04-17T01:52:41.367Z,10.70
2023-04-17T01:57:41.302Z,11.00
2023-04-17T02:02:41.409Z,9.10
2023-04-17T02:07:41.165Z,8.30
2023-04-17T02:12:41.118Z,8.50
2023-04-17T02:17:41.085Z,7.30
2023-04-17T02:22:41.046Z,6.80
2023-04-17T02:27:40.940Z,7.60
2023-04-17T02:32:40.924Z,6.70
2023-04-17T02:37:40.771Z,7.30
2023-04-17T02:42:40.680Z,7.60
2023-04-17T02:47:40.624Z,7.80
2023-04-17T02:52:40.516Z,9.40
2023-04-17T02:57:40.504Z,8.30
2023-04-17T03:02:40.533Z,8.90
2023-04-17T03:07:40.375Z,8.30
2023-04-17T03:12:40.324Z,8.70
2023-04-17T03:17:40.283Z,7.70
2023-04-17T03:22:40.144Z,7.90
2023-04-17T03:27:40.076Z,9.00
2023-04-17T03:32:40.023Z,7.30
2023-04-17T03:37:39.957Z,8.60
2023-04-17T03:42:39.871Z,8.80
2023-04-17T03:47:39.832Z,8.80
2023-04-17T03:52:39.774Z,9.50
2023-04-17T03:57:39.684Z,9.50
2023-04-17T04:02:39.826Z,9.20
2023-04-17T04:07:39.555Z,8.60
2023-04-17T04:12:39.521Z,8.10
2023-04-17T04:17:39.472Z,8.90
2023-04-17T04:22:39.371Z,8.10
2023-04-17T04:27:39.304Z,9.10
2023-04-17T04:32:39.272Z,9.50
2023-04-17T04:37:39.161Z,9.90
2023-04-17T04:42:39.098Z,10.00
2023-04-17T04:47:39.080Z,9.10
2023-04-17T04:52:39.007Z,8.30
2023-04-17T04:57:38.887Z,8.20
2023-04-17T05:02:38.963Z,5.80
2023-04-17T05:07:38.758Z,4.60
2023-04-17T05:12:38.706Z,4.30
2023-04-17T05:17:38.678Z,3.30
2023-04-17T05:22:38.631Z,2.80
2023-04-17T05:27:38.502Z,4.30
2023-04-17T05:32:38.464Z,5.20
2023-04-17T05:37:38.401Z,7.30
2023-04-17T05:42:38.311Z,7.30
2023-04-17T05:47:38.409Z,7.00
2023-04-17T05:52:39.629Z,8.00
2023-04-17T05:57:38.127Z,8.10
2023-04-17T06:02:38.287Z,8.10
2023-04-17T06:07:38.072Z,9.30
2023-04-17T06:12:37.937Z,9.30
2023-04-17T06:17:37.966Z,10.00
2023-04-17T06:22:38.041Z,9.70
2023-04-17T06:27:37.835Z,9.60
2023-04-17T06:32:37.649Z,10.40
2023-04-17T06:37:37.573Z,9.50
2023-04-17T06:42:37.522Z,7.30
2023-04-17T06:47:37.488Z,6.80
2023-04-17T06:52:37.402Z,7.10
2023-04-17T06:57:37.352Z,7.80
2023-04-17T07:02:37.363Z,7.10
2023-04-17T07:07:37.197Z,7.40
2023-04-17T07:12:37.130Z,7.70
2023-04-17T07:17:37.075Z,6.10
2023-04-17T07:22:37.027Z,6.10
2023-04-17T07:27:36.911Z,5.60
2023-04-17T07:32:36.954Z,6.60
2023-04-17T07:37:36.797Z,5.50
2023-04-17T07:42:36.730Z,6.00
2023-04-17T07:47:36.715Z,5.50
2023-04-17T07:52:36.580Z,5.30
2023-04-17T07:57:36.510Z,5.00
2023-04-17T08:02:36.573Z,3.80
2023-04-17T08:07:36.386Z,3.60
2023-04-17T08:12:36.310Z,3.60
2023-04-17T08:17:36.263Z,3.20
2023-04-17T08:22:36.208Z,3.20
2023-04-17T08:27:36.127Z,3.60
2023-04-17T08:32:36.138Z,2.90
2023-04-17T08:37:35.974Z,4.10
2023-04-17T08:42:35.908Z,3.40
2023-04-17T08:47:35.905Z,3.20
2023-04-17T08:52:35.800Z,8.10
2023-04-17T08:57:35.721Z,4.50
2023-04-17T09:02:35.741Z,5.40
2023-04-17T09:07:35.546Z,5.90
2023-04-17T09:12:35.499Z,6.80
2023-04-17T09:17:35.431Z,7.30
2023-04-17T09:22:35.435Z,5.70
2023-04-17T09:27:35.312Z,7.00
2023-04-17T09:32:35.290Z,7.80
2023-04-17T09:37:35.235Z,7.80
2023-04-17T09:42:35.124Z,8.80
2023-04-17T09:47:35.123Z,8.10
2023-04-17T09:52:34.986Z,8.10
2023-04-17T09:57:34.905Z,9.40
2023-04-17T10:02:34.976Z,8.10
2023-04-17T10:07:34.817Z,8.80
2023-04-17T10:12:35.034Z,8.70
2023-04-17T10:17:34.861Z,9.40
2023-04-17T10:22:34.590Z,9.40
2023-04-17T10:27:34.516Z,10.10
2023-04-17T10:32:34.531Z,8.30
2023-04-17T10:37:34.413Z,6.80
2023-04-17T10:42:34.349Z,5.80
2023-04-17T10:47:34.261Z,9.50
2023-04-17T10:52:34.203Z,7.80
2023-04-17T10:57:34.160Z,8.90
2023-04-17T11:02:34.193Z,8.10
2023-04-17T11:07:33.996Z,6.90
2023-04-17T11:12:33.971Z,8.40
2023-04-17T11:17:33.958Z,9.10
2023-04-17T11:22:33.830Z,9.00
2023-04-17T11:27:33.777Z,7.90
2023-04-17T11:32:33.717Z,8.30
2023-04-17T11:37:33.567Z,8.10
2023-04-17T11:42:33.524Z,10.60
2023-04-17T11:47:33.518Z,8.40
2023-04-17T11:52:33.400Z,9.40
2023-04-17T11:57:33.320Z,10.10
2023-04-17T12:02:33.804Z,10.60
2023-04-17T12:07:33.174Z,8.70
2023-04-17T12:12:33.115Z,8.60
2023-04-17T12:17:33.131Z,10.90
2023-04-17T12:22:33.300Z,9.00
2023-04-17T12:27:32.945Z,8.90
2023-04-17T12:32:32.925Z,10.60
2023-04-17T12:37:32.845Z,9.40
2023-04-17T12:42:39.423Z,11.50
2023-04-17T12:47:33.659Z,9.20
2023-04-17T12:52:32.625Z,9.30
2023-04-17T12:57:32.545Z,7.90
2023-04-17T13:02:32.604Z,9.90
2023-04-17T13:07:32.448Z,8.60
2023-04-17T13:12:32.350Z,9.10
2023-04-17T13:17:32.302Z,9.90
2023-04-17T13:22:32.193Z,11.50
2023-04-17T13:27:32.148Z,10.50
2023-04-17T13:32:32.186Z,11.90
2023-04-17T13:37:32.029Z,11.70
2023-04-17T13:42:31.974Z,10.30
2023-04-17T13:47:31.895Z,12.10
2023-04-17T13:52:31.861Z,12.20
2023-04-17T13:57:31.856Z,15.50
2023-04-17T14:02:32.033Z,12.30
2023-04-17T14:07:31.648Z,13.40
2023-04-17T14:12:31.588Z,11.30
2023-04-17T14:17:31.519Z,12.10
2023-04-17T14:22:31.437Z,13.50
2023-04-17T14:27:31.385Z,13.90
2023-04-17T14:32:31.460Z,12.20
2023-04-17T14:37:31.215Z,14.50
2023-04-17T14:42:34.090Z,13.00
2023-04-17T14:47:32.122Z,14.90
2023-04-17T14:52:31.020Z,13.90
2023-04-17T14:57:30.970Z,14.20
2023-04-17T15:02:31.020Z,13.90
2023-04-17T15:07:30.824Z,12.00
2023-04-17T15:12:30.776Z,14.70
2023-04-17T15:17:30.854Z,13.70
2023-04-17T15:22:30.636Z,11.80
2023-04-17T15:27:30.601Z,12.30
2023-04-17T15:32:30.658Z,12.70
2023-04-17T15:37:30.422Z,13.10
2023-04-17T15:42:30.406Z,13.10
2023-04-17T15:47:30.345Z,13.40
2023-04-17T15:52:30.261Z,11.70
2023-04-17T15:57:30.166Z,12.00
2023-04-17T16:02:30.200Z,10.00
2023-04-17T16:07:30.223Z,8.00
2023-04-17T16:12:30.004Z,9.80
2023-04-17T16:17:29.929Z,7.90
2023-04-17T16:22:29.868Z,9.70
2023-04-17T16:27:29.793Z,7.20
2023-04-17T16:32:29.714Z,7.70
2023-04-17T16:37:29.635Z,7.90
2023-04-17T16:42:29.702Z,7.10
2023-04-17T16:47:29.607Z,7.90
2023-04-17T16:52:29.500Z,7.30
2023-04-17T16:57:29.459Z,6.30
2023-04-17T17:02:29.393Z,6.90
2023-04-17T17:07:29.251Z,8.50
2023-04-17T17:12:29.152Z,8.20
2023-04-17T17:17:29.108Z,8.90
2023-04-17T17:22:29.187Z,8.00
2023-04-17T17:27:29.036Z,7.60
2023-04-17T17:32:29.016Z,7.10
2023-04-17T17:37:28.867Z,8.70
2023-04-17T17:42:28.786Z,8.30
2023-04-17T17:47:28.736Z,7.70
2023-04-17T17:52:28.711Z,8.20
2023-04-17T17:57:35.680Z,7.70
2023-04-17T18:02:29.607Z,7.30
2023-04-17T18:07:28.488Z,8.10
2023-04-17T18:12:28.877Z,7.90
2023-04-17T18:17:28.392Z,7.50
2023-04-17T18:22:28.280Z,9.90
2023-04-17T18:27:28.209Z,8.70
2023-04-17T18:32:28.195Z,10.90
2023-04-17T18:37:28.114Z,9.90
2023-04-17T18:42:28.100Z,11.10
2023-04-17T18:47:28.070Z,11.70
2023-04-17T18:52:27.888Z,12.90
2023-04-17T18:57:27.849Z,10.90
2023-04-17T19:02:27.878Z,10.20
2023-04-17T19:07:27.855Z,10.80
2023-04-17T19:12:27.669Z,10.30
2023-04-17T19:17:27.652Z,11.90
2023-04-17T19:22:27.507Z,11.00
2023-04-17T19:27:27.477Z,9.90
2023-04-17T19:32:27.756Z,10.40
2023-04-17T19:37:27.303Z,13.60
2023-04-17T19:42:27.328Z,14.90
2023-04-17T19:47:27.252Z,14.30
2023-04-17T19:52:27.199Z,14.40
2023-04-17T19:57:27.039Z,13.30
2023-04-17T20:02:27.610Z,11.70
2023-04-17T20:07:26.914Z,15.50
2023-04-17T20:12:26.829Z,12.50
2023-04-17T20:17:26.832Z,14.90
2023-04-17T20:22:26.708Z,12.60
2023-04-17T20:27:26.685Z,15.00
2023-04-17T20:32:26.599Z,15.30
2023-04-17T20:37:26.494Z,16.80
2023-04-17T20:42:27.137Z,15.90
2023-04-17T20:47:26.413Z,17.60
2023-04-17T20:52:26.808Z,18.40
2023-04-17T20:57:26.210Z,21.30
2023-04-17T21:02:26.198Z,18.70
2023-04-17T21:07:26.056Z,18.90
2023-04-17T21:12:26.070Z,17.20
2023-04-17T21:17:25.974Z,20.10
2023-04-17T21:22:25.872Z,19.90
2023-04-17T21:27:25.840Z,17.90
2023-04-17T21:32:25.795Z,14.60
2023-04-17T21:37:25.680Z,14.60
2023-04-17T21:42:25.653Z,14.10
2023-04-17T21:47:25.571Z,14.90
2023-04-17T21:52:25.509Z,16.30
2023-04-17T21:57:25.568Z,14.10
2023-04-17T22:02:25.480Z,16.40
2023-04-17T22:07:25.984Z,13.60
2023-04-17T22:12:25.266Z,15.80
2023-04-17T22:17:25.276Z,12.40
2023-04-17T22:22:25.107Z,13.20
2023-04-17T22:27:25.047Z,15.00
2023-04-17T22:32:25.076Z,14.70
2023-04-17T22:37:24.929Z,14.00
2023-04-17T22:42:24.871Z,14.70
2023-04-17T22:47:24.850Z,19.60
2023-04-17T22:52:24.738Z,17.50
2023-04-17T22:57:24.649Z,17.70
2023-04-17T23:02:24.677Z,21.10
2023-04-17T23:07:24.517Z,21.80
2023-04-17T23:12:24.428Z,23.80
2023-04-17T23:17:24.487Z,22.60
2023-04-17T23:22:24.356Z,23.80
2023-04-17T23:27:24.621Z,21.80
2023-04-17T23:32:24.210Z,25.30
2023-04-17T23:37:24.106Z,25.30
2023-04-17T23:42:24.081Z,27.30
2023-04-17T23:47:23.996Z,29.80
2023-04-17T23:52:23.922Z,30.40
2023-04-17T23:57:23.992Z,31.10
